createdAt,value
2019-03-13T00:01:57.973Z,7.10
2019-03-13T00:04:39.057Z,7.20
2019-03-13T00:07:20.064Z,7.10
2019-03-13T00:10:00.655Z,7.20
2019-03-13T00:12:41.371Z,7.00
2019-03-13T00:15:21.793Z,6.90
2019-03-13T00:18:02.300Z,6.50
2019-03-13T00:20:43.436Z,6.30
2019-03-13T00:23:23.752Z,6.20
2019-03-13T00:26:04.188Z,6.10
2019-03-13T00:28:44.725Z,6.00
2019-03-13T00:31:25.892Z,5.90
2019-03-13T00:34:06.544Z,5.80
2019-03-13T00:36:47.349Z,5.80
2019-03-13T00:39:28.259Z,5.80
2019-03-13T00:41:56.840Z,5.70
2019-03-13T00:44:44.779Z,5.70
2019-03-13T00:47:32.676Z,5.70
2019-03-13T00:50:39.934Z,5.60
2019-03-13T00:53:27.859Z,5.60
2019-03-13T00:56:15.753Z,5.50
2019-03-13T00:59:03.677Z,5.50
2019-03-13T01:02:10.828Z,5.50
2019-03-13T01:07:53.656Z,5.40
2019-03-13T01:10:41.580Z,5.40
2019-03-13T01:16:36.376Z,5.30
2019-03-13T01:19:24.341Z,5.30
2019-03-13T01:22:12.332Z,5.30
2019-03-13T01:24:53.190Z,5.20
2019-03-13T01:27:33.713Z,5.20
2019-03-13T01:30:14.899Z,5.20
2019-03-13T01:32:57.338Z,5.20
2019-03-13T01:35:39.903Z,5.20
2019-03-13T01:38:20.977Z,5.20
2019-03-13T01:41:01.399Z,5.20
2019-03-13T01:43:42.569Z,5.10
2019-03-13T01:46:23.248Z,5.00
2019-03-13T01:49:03.876Z,5.00
2019-03-13T01:51:45.076Z,4.90
2019-03-13T01:54:26.208Z,4.80
2019-03-13T01:57:06.517Z,4.90
2019-03-13T01:59:47.413Z,4.90
2019-03-13T02:02:28.197Z,4.80
2019-03-13T02:05:09.332Z,4.70
2019-03-13T02:07:50.228Z,4.70
2019-03-13T02:10:30.761Z,4.70
2019-03-13T02:13:11.325Z,4.80
2019-03-13T02:15:52.040Z,4.80
2019-03-13T02:18:20.587Z,4.80
2019-03-13T02:20:49.148Z,4.80
2019-03-13T02:23:17.739Z,4.80
2019-03-13T02:25:46.294Z,4.80
2019-03-13T02:28:14.845Z,4.80
2019-03-13T02:31:02.771Z,4.90
2019-03-13T02:33:50.674Z,5.00
2019-03-13T02:36:38.607Z,4.90
2019-03-13T02:39:26.671Z,4.90
2019-03-13T02:45:21.525Z,4.90
2019-03-13T02:48:09.452Z,4.90
2019-03-13T02:50:57.393Z,4.90
2019-03-13T02:53:45.293Z,4.90
2019-03-13T02:56:33.277Z,4.90
2019-03-13T02:59:21.172Z,4.90
2019-03-13T03:05:04.278Z,4.90
2019-03-13T03:07:52.209Z,4.90
2019-03-13T03:10:20.758Z,4.90
2019-03-13T03:12:49.341Z,4.90
2019-03-13T03:15:37.236Z,4.90
2019-03-13T03:18:25.240Z,4.90
2019-03-13T03:21:13.144Z,4.90
2019-03-13T03:24:01.066Z,4.90
2019-03-13T03:26:41.658Z,4.90
2019-03-13T03:29:22.545Z,4.90
2019-03-13T03:32:03.046Z,5.00
2019-03-13T03:34:43.952Z,5.00
2019-03-13T03:37:25.072Z,5.00
2019-03-13T03:40:06.229Z,5.00
2019-03-13T03:42:46.613Z,5.00
2019-03-13T03:45:27.161Z,5.00
2019-03-13T03:48:07.983Z,5.00
2019-03-13T03:50:49.113Z,5.00
2019-03-13T03:53:32.629Z,5.00
2019-03-13T03:56:13.821Z,5.10
2019-03-13T03:58:54.748Z,5.00
2019-03-13T04:01:35.523Z,5.00
2019-03-13T04:04:16.185Z,5.00
2019-03-13T04:06:57.060Z,5.00
2019-03-13T04:09:37.619Z,5.00
2019-03-13T04:12:06.167Z,5.00
2019-03-13T04:14:34.779Z,5.10
2019-03-13T04:17:22.645Z,5.10
2019-03-13T04:20:31.304Z,5.00
2019-03-13T04:23:19.203Z,5.10
2019-03-13T04:26:00.054Z,5.10
2019-03-13T04:31:23.569Z,5.10
2019-03-13T04:34:04.757Z,5.10
2019-03-13T04:36:45.299Z,5.10
2019-03-13T04:39:26.279Z,5.10
2019-03-13T04:42:06.613Z,5.10
2019-03-13T04:44:47.415Z,5.10
2019-03-13T04:47:28.657Z,5.00
2019-03-13T04:50:09.921Z,5.00
2019-03-13T04:52:50.422Z,5.00
2019-03-13T04:55:31.779Z,5.00
2019-03-13T04:58:13.120Z,5.00
2019-03-13T05:00:54.088Z,5.00
2019-03-13T05:03:35.201Z,5.00
2019-03-13T05:06:15.933Z,5.00
2019-03-13T05:08:45.713Z,5.00
2019-03-13T05:11:33.704Z,5.00
2019-03-13T05:14:21.608Z,5.00
2019-03-13T05:17:09.542Z,5.10
2019-03-13T05:19:57.468Z,5.10
2019-03-13T05:22:45.376Z,5.10
2019-03-13T05:25:26.453Z,5.20
2019-03-13T05:27:55.039Z,5.20
2019-03-13T05:30:23.605Z,5.20
2019-03-13T05:32:52.264Z,5.20
2019-03-13T05:35:40.240Z,5.30
2019-03-13T05:38:28.164Z,5.30
2019-03-13T05:41:16.062Z,5.30
2019-03-13T05:44:04.095Z,5.30
2019-03-13T05:46:52.029Z,5.30
2019-03-13T05:49:40.041Z,5.30
2019-03-13T05:52:27.980Z,5.30
2019-03-13T05:55:15.877Z,5.40
2019-03-13T05:58:03.809Z,5.40
2019-03-13T06:03:45.280Z,5.40
2019-03-13T06:06:33.480Z,5.40
2019-03-13T06:09:21.551Z,5.40
2019-03-13T06:12:09.580Z,5.50
2019-03-13T06:17:50.740Z,5.50
2019-03-13T06:20:38.673Z,5.50
2019-03-13T06:23:26.564Z,5.60
2019-03-13T06:26:07.821Z,5.60
2019-03-13T06:28:49.061Z,5.60
2019-03-13T06:31:29.692Z,5.60
2019-03-13T06:34:11.440Z,5.60
2019-03-13T06:36:52.179Z,5.60
2019-03-13T06:39:32.507Z,5.60
2019-03-13T06:42:13.187Z,5.60
2019-03-13T06:44:53.679Z,5.60
2019-03-13T06:47:34.272Z,5.60
2019-03-13T06:50:15.108Z,5.60
2019-03-13T06:52:55.632Z,5.70
2019-03-13T06:55:36.847Z,5.70
2019-03-13T06:58:19.132Z,5.70
2019-03-13T07:01:18.717Z,5.70
2019-03-13T07:04:21.157Z,5.70
2019-03-13T07:10:13.385Z,5.70
2019-03-13T07:12:55.600Z,5.70
2019-03-13T07:15:38.466Z,5.70
2019-03-13T07:18:17.761Z,5.80
2019-03-13T07:21:24.841Z,5.70
2019-03-13T07:24:32.137Z,5.70
2019-03-13T07:27:17.207Z,5.70
2019-03-13T07:30:02.643Z,5.80
2019-03-13T07:33:03.020Z,5.80
2019-03-13T07:35:47.989Z,5.80
2019-03-13T07:38:30.857Z,5.80
2019-03-13T07:41:30.607Z,5.80
2019-03-13T07:44:13.415Z,5.80
2019-03-13T07:46:58.525Z,5.90
2019-03-13T07:49:44.137Z,5.90
2019-03-13T07:52:29.095Z,5.80
2019-03-13T07:55:11.187Z,5.90
2019-03-13T07:58:10.860Z,5.90
2019-03-13T08:00:56.668Z,5.90
2019-03-13T08:03:56.342Z,5.90
2019-03-13T08:06:55.975Z,5.90
2019-03-13T08:09:41.146Z,5.90
2019-03-13T08:12:41.378Z,5.90
2019-03-13T08:15:24.089Z,6.00
2019-03-13T08:18:09.984Z,6.00
2019-03-13T08:20:55.396Z,6.00
2019-03-13T08:23:37.790Z,6.10
2019-03-13T08:26:37.538Z,6.10
2019-03-13T08:29:19.914Z,6.10
2019-03-13T08:32:06.372Z,6.10
2019-03-13T08:34:42.127Z,6.20
2019-03-13T08:37:28.408Z,6.20
2019-03-13T08:43:44.029Z,6.20
2019-03-13T08:46:51.146Z,6.30
2019-03-13T08:49:58.254Z,6.30
2019-03-13T08:53:05.355Z,6.30
2019-03-13T08:56:12.461Z,6.30
2019-03-13T09:02:28.093Z,6.40
2019-03-13T09:05:35.218Z,6.40
2019-03-13T09:08:42.301Z,6.40
2019-03-13T09:11:49.425Z,6.40
2019-03-13T09:21:03.490Z,6.50
2019-03-13T09:24:10.651Z,6.60
2019-03-13T09:27:17.752Z,6.60
2019-03-13T09:30:00.075Z,6.60
2019-03-13T09:32:43.060Z,6.60
2019-03-13T09:35:28.852Z,6.60
2019-03-13T09:41:18.000Z,6.60
2019-03-13T09:44:00.787Z,6.60
2019-03-13T09:49:50.349Z,6.70
2019-03-13T09:52:35.060Z,6.80
2019-03-13T09:55:20.861Z,6.80
2019-03-13T09:58:08.644Z,6.70
2019-03-13T10:01:15.768Z,6.70
2019-03-13T10:03:46.035Z,6.80
2019-03-13T10:06:22.506Z,6.70
2019-03-13T10:12:25.003Z,6.80
2019-03-13T10:18:40.721Z,6.70
2019-03-13T10:27:30.920Z,6.70
2019-03-13T10:30:31.325Z,6.80
2019-03-13T10:33:31.486Z,6.80
2019-03-13T10:36:16.210Z,6.90
2019-03-13T10:39:16.620Z,6.80
2019-03-13T10:42:16.274Z,6.80
2019-03-13T10:45:01.236Z,6.80
2019-03-13T10:47:43.893Z,6.70
2019-03-13T10:50:44.319Z,6.70
2019-03-13T10:53:44.342Z,6.60
2019-03-13T10:56:43.981Z,6.60
2019-03-13T10:59:29.236Z,6.50
2019-03-13T11:08:14.190Z,6.50
2019-03-13T11:11:14.599Z,6.50
2019-03-13T11:13:59.799Z,6.40
2019-03-13T11:19:36.188Z,6.30
2019-03-13T11:22:18.368Z,6.20
2019-03-13T11:25:18.967Z,6.10
2019-03-13T11:28:04.854Z,6.00
2019-03-13T11:30:47.287Z,6.00
2019-03-13T11:33:47.113Z,6.00
2019-03-13T11:36:29.422Z,6.00
2019-03-13T11:42:04.629Z,6.10
2019-03-13T11:44:34.856Z,6.10
2019-03-13T11:47:10.875Z,6.20
2019-03-13T11:49:43.681Z,6.20
2019-03-13T11:52:30.027Z,6.20
2019-03-13T11:55:05.952Z,6.20
2019-03-13T11:58:13.081Z,6.20
2019-03-13T12:01:20.188Z,6.20
2019-03-13T12:04:27.289Z,6.20
2019-03-13T12:07:34.386Z,6.20
2019-03-13T12:10:41.509Z,6.30
2019-03-13T12:13:48.693Z,6.20
2019-03-13T12:16:55.813Z,6.20
2019-03-13T12:23:11.448Z,6.30
2019-03-13T12:26:18.528Z,6.40
2019-03-13T12:31:59.555Z,6.40
2019-03-13T12:34:59.112Z,6.50
2019-03-13T12:37:41.821Z,6.60
2019-03-13T12:40:41.506Z,6.70
2019-03-13T12:43:41.257Z,6.80
2019-03-13T12:46:41.157Z,7.00
2019-03-13T12:52:20.080Z,7.20
2019-03-13T12:55:03.015Z,7.30
2019-03-13T13:03:46.063Z,7.30
2019-03-13T13:06:28.315Z,7.20
2019-03-13T13:09:27.869Z,7.20
2019-03-13T13:12:28.003Z,7.20
2019-03-13T13:15:28.311Z,7.10
2019-03-13T13:18:01.309Z,7.10
2019-03-13T13:20:29.891Z,7.00
2019-03-13T13:22:58.477Z,7.10
2019-03-13T13:25:27.061Z,7.10
2019-03-13T13:28:08.044Z,7.10
2019-03-13T13:30:48.454Z,7.20
2019-03-13T13:33:29.846Z,7.30
2019-03-13T13:36:10.258Z,7.30
2019-03-13T13:38:51.478Z,7.30
2019-03-13T13:41:32.461Z,7.40
2019-03-13T13:44:13.188Z,7.50
2019-03-13T13:46:54.480Z,7.50
2019-03-13T13:49:35.157Z,7.60
2019-03-13T13:52:16.264Z,7.60
2019-03-13T13:54:57.405Z,7.60
2019-03-13T13:57:38.502Z,7.60
2019-03-13T14:00:19.464Z,7.50
2019-03-13T14:03:00.028Z,7.50
2019-03-13T14:05:41.094Z,7.40
2019-03-13T14:08:22.025Z,7.40
2019-03-13T14:11:02.543Z,7.40
2019-03-13T14:13:43.566Z,7.40
2019-03-13T14:16:23.985Z,7.30
2019-03-13T14:19:04.980Z,7.30
2019-03-13T14:21:45.293Z,7.00
2019-03-13T14:24:26.101Z,7.20
2019-03-13T14:27:14.946Z,7.20
2019-03-13T14:29:52.010Z,7.20
2019-03-13T14:32:32.909Z,7.20
2019-03-13T14:35:13.905Z,7.20
2019-03-13T14:37:54.730Z,7.10
2019-03-13T14:40:35.682Z,7.00
2019-03-13T14:43:16.759Z,6.80
2019-03-13T14:45:57.228Z,6.80
2019-03-13T14:48:37.712Z,6.80
2019-03-13T14:51:18.066Z,6.80
2019-03-13T14:53:59.332Z,6.80
2019-03-13T14:56:40.453Z,6.80
2019-03-13T14:59:21.191Z,6.80
2019-03-13T15:02:01.557Z,6.80
2019-03-13T15:04:42.379Z,6.80
2019-03-13T15:07:22.856Z,6.70
2019-03-13T15:12:33.241Z,6.50
2019-03-13T15:15:01.837Z,6.40
2019-03-13T15:17:30.424Z,6.40
2019-03-13T15:19:58.972Z,6.30
2019-03-13T15:25:39.937Z,6.00
2019-03-13T15:28:27.839Z,5.90
2019-03-13T15:31:08.349Z,5.80
2019-03-13T15:33:49.097Z,5.80
2019-03-13T15:36:29.752Z,5.90
2019-03-13T15:39:10.596Z,5.90
2019-03-13T15:41:51.508Z,5.90
2019-03-13T15:44:32.272Z,6.00
2019-03-13T15:47:13.513Z,6.00
2019-03-13T15:49:54.072Z,6.10
2019-03-13T15:52:34.060Z,6.10
2019-03-13T15:55:21.985Z,6.20
2019-03-13T15:58:09.908Z,6.10
2019-03-13T16:07:14.326Z,6.00
2019-03-13T16:09:50.040Z,6.00
2019-03-13T16:12:37.965Z,6.00
2019-03-13T16:18:21.453Z,5.90
2019-03-13T16:21:09.372Z,5.90
2019-03-13T16:23:57.264Z,5.90
2019-03-13T16:26:45.188Z,5.90
2019-03-13T16:29:33.093Z,5.90
2019-03-13T16:32:15.444Z,5.80
2019-03-13T16:34:56.780Z,5.80
2019-03-13T16:37:37.441Z,5.80
2019-03-13T16:40:12.086Z,5.70
2019-03-13T16:42:40.775Z,5.70
2019-03-13T16:45:12.185Z,5.70
2019-03-13T16:48:00.117Z,5.70
2019-03-13T16:50:48.007Z,5.60
2019-03-13T16:53:35.936Z,5.60
2019-03-13T16:56:23.844Z,5.50
2019-03-13T16:59:11.781Z,5.50
2019-03-13T17:01:59.988Z,5.50
2019-03-13T17:05:09.146Z,5.50
2019-03-13T17:07:57.064Z,5.40
2019-03-13T17:10:44.997Z,5.50
2019-03-13T17:13:33.455Z,5.40
2019-03-13T17:16:21.339Z,5.40
2019-03-13T17:19:09.290Z,5.30
2019-03-13T17:21:37.907Z,5.30
2019-03-13T17:24:06.455Z,5.30
2019-03-13T17:26:35.284Z,5.30
2019-03-13T17:29:03.868Z,5.30
2019-03-13T17:31:32.580Z,5.30
2019-03-13T17:34:13.225Z,5.30
2019-03-13T17:36:54.621Z,5.20
2019-03-13T17:39:35.568Z,5.20
2019-03-13T17:42:16.701Z,5.30
2019-03-13T17:45:00.393Z,5.30
2019-03-13T17:47:40.876Z,5.30
2019-03-13T17:50:22.003Z,5.30
2019-03-13T17:53:03.185Z,5.30
2019-03-13T17:55:44.020Z,5.30
2019-03-13T17:58:24.384Z,5.30
2019-03-13T18:01:05.354Z,5.30
2019-03-13T18:03:46.120Z,5.30
2019-03-13T18:06:27.214Z,5.40
2019-03-13T18:09:08.505Z,5.30
2019-03-13T18:11:49.017Z,5.40
2019-03-13T18:14:32.094Z,5.30
2019-03-13T18:17:11.495Z,5.30
2019-03-13T18:19:52.447Z,5.30
2019-03-13T18:22:33.620Z,5.30
2019-03-13T18:25:14.296Z,5.30
2019-03-13T18:27:55.491Z,5.40
2019-03-13T18:30:36.355Z,5.40
2019-03-13T18:33:17.711Z,5.40
2019-03-13T18:35:58.221Z,5.50
2019-03-13T18:38:39.465Z,5.50
2019-03-13T18:41:08.017Z,5.90
2019-03-13T18:43:55.949Z,6.30
2019-03-13T18:46:43.841Z,6.50
2019-03-13T18:49:31.807Z,6.30
2019-03-13T18:52:19.698Z,6.20
2019-03-13T18:55:28.362Z,6.00
2019-03-13T18:58:16.316Z,5.90
2019-03-13T19:01:04.364Z,5.90
2019-03-13T19:03:52.251Z,5.90
2019-03-13T19:06:32.949Z,5.90
2019-03-13T19:09:13.644Z,5.90
2019-03-13T19:11:55.040Z,5.90
2019-03-13T19:14:35.620Z,5.90
2019-03-13T19:17:16.173Z,6.00
2019-03-13T19:19:57.392Z,5.90
2019-03-13T19:22:38.231Z,6.00
2019-03-13T19:25:19.607Z,5.90
2019-03-13T19:28:00.075Z,5.90
2019-03-13T19:30:40.780Z,6.00
2019-03-13T19:33:21.925Z,6.00
2019-03-13T19:36:02.594Z,6.10
2019-03-13T19:38:43.717Z,6.10
2019-03-13T19:41:25.118Z,6.10
2019-03-13T19:44:05.570Z,6.10
2019-03-13T19:46:46.197Z,6.10
2019-03-13T19:49:27.292Z,6.20
2019-03-13T19:52:08.048Z,6.20
2019-03-13T19:54:48.448Z,6.30
2019-03-13T19:57:29.604Z,6.30
2019-03-13T20:00:10.857Z,6.30
2019-03-13T20:02:59.926Z,6.30
2019-03-13T20:05:22.500Z,6.40
2019-03-13T20:07:51.222Z,6.40
2019-03-13T20:10:22.970Z,6.40
2019-03-13T20:12:51.628Z,6.30
2019-03-13T20:15:24.972Z,6.40
2019-03-13T20:17:53.660Z,6.40
2019-03-13T20:20:41.583Z,6.40
2019-03-13T20:23:29.508Z,6.50
2019-03-13T20:26:17.476Z,6.40
2019-03-13T20:29:05.407Z,6.50
2019-03-13T20:31:53.313Z,6.50
2019-03-13T20:34:34.630Z,6.50
2019-03-13T20:37:15.909Z,6.60
2019-03-13T20:39:57.473Z,6.60
2019-03-13T20:42:38.226Z,6.60
2019-03-13T20:45:19.461Z,6.60
2019-03-13T20:48:00.311Z,6.60
2019-03-13T20:50:40.702Z,6.60
2019-03-13T20:53:21.138Z,6.60
2019-03-13T20:56:02.202Z,6.60
2019-03-13T20:58:43.139Z,6.60
2019-03-13T21:01:24.140Z,6.60
2019-03-13T21:03:52.997Z,6.60
2019-03-13T21:06:21.627Z,6.60
2019-03-13T21:08:50.183Z,6.70
2019-03-13T21:11:18.779Z,6.70
2019-03-13T21:13:47.380Z,6.70
2019-03-13T21:16:15.933Z,6.70
2019-03-13T21:18:44.612Z,6.60
2019-03-13T21:21:32.504Z,6.60
2019-03-13T21:24:20.448Z,6.60
2019-03-13T21:27:08.350Z,6.70
2019-03-13T21:30:08.184Z,6.60
2019-03-13T21:35:47.372Z,6.60
2019-03-13T21:38:28.640Z,6.60
2019-03-13T21:41:09.332Z,6.70
2019-03-13T21:43:51.098Z,6.70
2019-03-13T21:46:31.765Z,6.70
2019-03-13T21:49:12.428Z,6.70
2019-03-13T21:51:53.101Z,6.60
2019-03-13T21:54:34.038Z,6.60
2019-03-13T21:57:14.913Z,6.70
2019-03-13T21:59:55.477Z,6.70
2019-03-13T22:02:36.629Z,6.70
2019-03-13T22:05:25.737Z,6.70
2019-03-13T22:08:00.409Z,6.60
2019-03-13T22:10:41.542Z,6.60
2019-03-13T22:13:21.918Z,6.60
2019-03-13T22:16:02.518Z,6.60
2019-03-13T22:18:31.095Z,6.60
2019-03-13T22:20:59.643Z,6.60
2019-03-13T22:23:28.232Z,6.60
2019-03-13T22:25:56.795Z,6.60
2019-03-13T22:28:25.474Z,6.50
2019-03-13T22:30:54.163Z,6.50
2019-03-13T22:33:42.074Z,6.50
2019-03-13T22:36:23.053Z,6.50
2019-03-13T22:39:05.499Z,6.50
2019-03-13T22:41:46.133Z,6.50
2019-03-13T22:44:27.517Z,6.50
2019-03-13T22:47:08.768Z,6.40
2019-03-13T22:49:49.734Z,6.30
2019-03-13T22:52:30.385Z,6.40
2019-03-13T22:55:11.629Z,6.30
2019-03-13T22:57:52.525Z,6.30
2019-03-13T23:00:52.505Z,6.30
2019-03-13T23:03:33.536Z,6.30
2019-03-13T23:06:14.318Z,6.20
2019-03-13T23:08:55.456Z,6.20
2019-03-13T23:11:35.868Z,6.30
2019-03-13T23:14:17.033Z,6.30
2019-03-13T23:16:58.318Z,6.30
2019-03-13T23:19:39.221Z,6.30
2019-03-13T23:22:20.004Z,6.30
2019-03-13T23:25:03.970Z,6.30
2019-03-13T23:27:32.531Z,6.30
2019-03-13T23:30:01.115Z,6.30
2019-03-13T23:32:29.780Z,6.40
2019-03-13T23:34:58.344Z,6.40
2019-03-13T23:37:26.932Z,6.30
2019-03-13T23:39:55.488Z,6.30
2019-03-13T23:42:43.419Z,6.30
2019-03-13T23:45:31.319Z,6.30
2019-03-13T23:48:19.244Z,6.30
2019-03-13T23:51:07.150Z,6.30
2019-03-13T23:53:55.072Z,6.30
2019-03-13T23:56:43.012Z,6.40
2019-03-13T23:59:30.945Z,6.40
